sensor_id;sensor_type;location;lat;lon;timestamp;temperature;humidity
4548;DHT22;2286;51.570;7.090;2023-07-09T00:01:12;22.80;1.00
4548;DHT22;2286;51.570;7.090;2023-07-09T00:03:39;22.70;1.00
4548;DHT22;2286;51.570;7.090;2023-07-09T00:06:08;22.60;1.00
4548;DHT22;2286;51.570;7.090;2023-07-09T00:08:35;22.50;1.00
4548;DHT22;2286;51.570;7.090;2023-07-09T00:11:02;22.50;1.00
4548;DHT22;2286;51.570;7.090;2023-07-09T00:13:29;22.40;1.00
4548;DHT22;2286;51.570;7.090;2023-07-09T00:15:59;22.30;1.00
4548;DHT22;2286;51.570;7.090;2023-07-09T00:18:28;22.30;1.00
4548;DHT22;2286;51.570;7.090;2023-07-09T00:20:55;22.30;1.00
4548;DHT22;2286;51.570;7.090;2023-07-09T00:23:24;22.20;1.00
4548;DHT22;2286;51.570;7.090;2023-07-09T00:25:53;22.20;1.00
4548;DHT22;2286;51.570;7.090;2023-07-09T00:28:20;22.30;1.00
4548;DHT22;2286;51.570;7.090;2023-07-09T00:30:48;22.30;1.00
4548;DHT22;2286;51.570;7.090;2023-07-09T00:33:16;22.30;1.00
4548;DHT22;2286;51.570;7.090;2023-07-09T00:35:46;22.30;1.00
4548;DHT22;2286;51.570;7.090;2023-07-09T00:38:16;22.30;1.00
4548;DHT22;2286;51.570;7.090;2023-07-09T00:40:47;22.30;1.00
4548;DHT22;2286;51.570;7.090;2023-07-09T00:43:16;22.20;1.00
4548;DHT22;2286;51.570;7.090;2023-07-09T00:45:43;22.10;1.00
4548;DHT22;2286;51.570;7.090;2023-07-09T00:48:13;22.10;1.00
4548;DHT22;2286;51.570;7.090;2023-07-09T00:50:44;22.00;1.00
4548;DHT22;2286;51.570;7.090;2023-07-09T00:53:18;22.00;1.00
4548;DHT22;2286;51.570;7.090;2023-07-09T00:55:49;21.90;1.00
4548;DHT22;2286;51.570;7.090;2023-07-09T00:58:17;21.90;1.00
4548;DHT22;2286;51.570;7.090;2023-07-09T01:00:47;21.90;1.00
4548;DHT22;2286;51.570;7.090;2023-07-09T01:03:25;21.80;1.00
4548;DHT22;2286;51.570;7.090;2023-07-09T01:05:57;21.80;1.00
4548;DHT22;2286;51.570;7.090;2023-07-09T01:08:27;21.80;1.00
4548;DHT22;2286;51.570;7.090;2023-07-09T01:10:56;21.80;1.00
4548;DHT22;2286;51.570;7.090;2023-07-09T01:13:24;21.70;1.00
4548;DHT22;2286;51.570;7.090;2023-07-09T01:15:52;21.70;1.00
4548;DHT22;2286;51.570;7.090;2023-07-09T01:18:19;21.60;1.00
4548;DHT22;2286;51.570;7.090;2023-07-09T01:20:47;21.60;1.00
4548;DHT22;2286;51.570;7.090;2023-07-09T01:23:15;21.60;1.00
4548;DHT22;2286;51.570;7.090;2023-07-09T01:25:47;21.50;1.00
4548;DHT22;2286;51.570;7.090;2023-07-09T01:28:18;21.50;1.00
4548;DHT22;2286;51.570;7.090;2023-07-09T01:30:46;21.40;1.00
4548;DHT22;2286;51.570;7.090;2023-07-09T01:33:20;21.30;1.00
4548;DHT22;2286;51.570;7.090;2023-07-09T01:35:47;21.30;1.00
4548;DHT22;2286;51.570;7.090;2023-07-09T01:38:16;21.30;1.00
4548;DHT22;2286;51.570;7.090;2023-07-09T01:40:43;21.20;45.10
4548;DHT22;2286;51.570;7.090;2023-07-09T01:43:12;21.20;99.90
4548;DHT22;2286;51.570;7.090;2023-07-09T01:45:39;21.20;99.90
4548;DHT22;2286;51.570;7.090;2023-07-09T01:48:06;21.20;99.90
4548;DHT22;2286;51.570;7.090;2023-07-09T01:50:39;21.20;99.90
4548;DHT22;2286;51.570;7.090;2023-07-09T01:53:09;21.20;99.90
4548;DHT22;2286;51.570;7.090;2023-07-09T01:55:38;21.10;99.90
4548;DHT22;2286;51.570;7.090;2023-07-09T01:58:06;21.10;99.90
4548;DHT22;2286;51.570;7.090;2023-07-09T02:00:34;21.00;99.90
4548;DHT22;2286;51.570;7.090;2023-07-09T02:03:01;21.00;99.90
4548;DHT22;2286;51.570;7.090;2023-07-09T02:05:31;21.00;1.00
4548;DHT22;2286;51.570;7.090;2023-07-09T02:07:58;20.90;1.00
4548;DHT22;2286;51.570;7.090;2023-07-09T02:10:26;20.80;1.00
4548;DHT22;2286;51.570;7.090;2023-07-09T02:12:54;20.80;1.00
4548;DHT22;2286;51.570;7.090;2023-07-09T02:15:21;20.80;24.30
4548;DHT22;2286;51.570;7.090;2023-07-09T02:17:48;20.70;99.90
4548;DHT22;2286;51.570;7.090;2023-07-09T02:20:18;20.70;99.90
4548;DHT22;2286;51.570;7.090;2023-07-09T02:22:45;20.60;99.90
4548;DHT22;2286;51.570;7.090;2023-07-09T02:25:12;20.60;99.90
4548;DHT22;2286;51.570;7.090;2023-07-09T02:27:39;20.60;99.90
4548;DHT22;2286;51.570;7.090;2023-07-09T02:30:09;20.60;99.90
4548;DHT22;2286;51.570;7.090;2023-07-09T02:32:37;20.50;99.90
4548;DHT22;2286;51.570;7.090;2023-07-09T02:35:04;20.60;99.90
4548;DHT22;2286;51.570;7.090;2023-07-09T02:37:31;20.50;99.90
4548;DHT22;2286;51.570;7.090;2023-07-09T02:39:58;20.50;99.90
4548;DHT22;2286;51.570;7.090;2023-07-09T02:42:25;20.50;99.90
4548;DHT22;2286;51.570;7.090;2023-07-09T02:44:52;20.50;99.90
4548;DHT22;2286;51.570;7.090;2023-07-09T02:47:21;20.50;99.90
4548;DHT22;2286;51.570;7.090;2023-07-09T02:49:48;20.50;99.90
4548;DHT22;2286;51.570;7.090;2023-07-09T02:52:15;20.50;99.90
4548;DHT22;2286;51.570;7.090;2023-07-09T02:54:42;20.40;99.90
4548;DHT22;2286;51.570;7.090;2023-07-09T02:57:09;20.40;99.90
4548;DHT22;2286;51.570;7.090;2023-07-09T02:59:37;20.40;99.90
4548;DHT22;2286;51.570;7.090;2023-07-09T03:02:04;20.30;99.90
4548;DHT22;2286;51.570;7.090;2023-07-09T03:04:33;20.30;99.90
4548;DHT22;2286;51.570;7.090;2023-07-09T03:07:00;20.30;99.90
4548;DHT22;2286;51.570;7.090;2023-07-09T03:09:27;20.20;99.90
4548;DHT22;2286;51.570;7.090;2023-07-09T03:11:55;20.20;99.90
4548;DHT22;2286;51.570;7.090;2023-07-09T03:14:22;20.20;99.90
4548;DHT22;2286;51.570;7.090;2023-07-09T03:16:49;20.20;99.90
4548;DHT22;2286;51.570;7.090;2023-07-09T03:19:16;20.10;99.90
4548;DHT22;2286;51.570;7.090;2023-07-09T03:21:44;20.10;99.90
4548;DHT22;2286;51.570;7.090;2023-07-09T03:24:11;20.00;99.90
4548;DHT22;2286;51.570;7.090;2023-07-09T03:26:40;20.00;99.90
4548;DHT22;2286;51.570;7.090;2023-07-09T03:29:07;20.00;99.90
4548;DHT22;2286;51.570;7.090;2023-07-09T03:31:34;20.00;99.90
4548;DHT22;2286;51.570;7.090;2023-07-09T03:34:01;20.00;99.90
4548;DHT22;2286;51.570;7.090;2023-07-09T03:36:29;20.00;99.90
4548;DHT22;2286;51.570;7.090;2023-07-09T03:38:57;20.00;99.90
4548;DHT22;2286;51.570;7.090;2023-07-09T03:41:25;20.00;99.90
4548;DHT22;2286;51.570;7.090;2023-07-09T03:43:52;20.00;1.00
4548;DHT22;2286;51.570;7.090;2023-07-09T03:46:19;20.00;99.90
4548;DHT22;2286;51.570;7.090;2023-07-09T03:48:46;20.00;99.90
4548;DHT22;2286;51.570;7.090;2023-07-09T03:51:16;20.10;99.90
4548;DHT22;2286;51.570;7.090;2023-07-09T03:53:43;20.00;99.90
4548;DHT22;2286;51.570;7.090;2023-07-09T03:56:12;20.00;99.90
4548;DHT22;2286;51.570;7.090;2023-07-09T03:58:39;20.00;99.90
4548;DHT22;2286;51.570;7.090;2023-07-09T04:01:06;20.00;99.90
4548;DHT22;2286;51.570;7.090;2023-07-09T04:03:33;20.00;99.90
4548;DHT22;2286;51.570;7.090;2023-07-09T04:06:00;19.90;99.90
4548;DHT22;2286;51.570;7.090;2023-07-09T04:08:27;19.90;99.90
4548;DHT22;2286;51.570;7.090;2023-07-09T04:10:54;19.90;1.00
4548;DHT22;2286;51.570;7.090;2023-07-09T04:13:23;20.00;99.90
4548;DHT22;2286;51.570;7.090;2023-07-09T04:15:50;20.00;99.90
4548;DHT22;2286;51.570;7.090;2023-07-09T04:18:17;20.10;99.90
4548;DHT22;2286;51.570;7.090;2023-07-09T04:20:48;20.10;99.90
4548;DHT22;2286;51.570;7.090;2023-07-09T04:23:16;20.20;99.90
4548;DHT22;2286;51.570;7.090;2023-07-09T04:25:43;20.20;99.90
4548;DHT22;2286;51.570;7.090;2023-07-09T04:28:10;20.30;99.90
4548;DHT22;2286;51.570;7.090;2023-07-09T04:30:39;20.30;99.90
4548;DHT22;2286;51.570;7.090;2023-07-09T04:33:13;20.30;99.90
4548;DHT22;2286;51.570;7.090;2023-07-09T04:35:43;20.40;99.90
4548;DHT22;2286;51.570;7.090;2023-07-09T04:38:10;20.40;99.90
4548;DHT22;2286;51.570;7.090;2023-07-09T04:40:37;20.50;99.90
4548;DHT22;2286;51.570;7.090;2023-07-09T04:43:04;20.50;99.90
4548;DHT22;2286;51.570;7.090;2023-07-09T04:45:31;20.60;99.90
4548;DHT22;2286;51.570;7.090;2023-07-09T04:48:00;20.70;99.90
4548;DHT22;2286;51.570;7.090;2023-07-09T04:50:27;20.70;97.30
4548;DHT22;2286;51.570;7.090;2023-07-09T04:52:54;20.70;58.70
4548;DHT22;2286;51.570;7.090;2023-07-09T04:55:21;20.80;15.60
4548;DHT22;2286;51.570;7.090;2023-07-09T04:57:48;20.90;1.00
4548;DHT22;2286;51.570;7.090;2023-07-09T05:00:15;20.90;1.00
4548;DHT22;2286;51.570;7.090;2023-07-09T05:02:43;21.00;1.00
4548;DHT22;2286;51.570;7.090;2023-07-09T05:05:11;21.10;1.00
4548;DHT22;2286;51.570;7.090;2023-07-09T05:07:38;21.20;1.00
4548;DHT22;2286;51.570;7.090;2023-07-09T05:10:06;21.20;1.00
4548;DHT22;2286;51.570;7.090;2023-07-09T05:12:33;21.30;1.00
4548;DHT22;2286;51.570;7.090;2023-07-09T05:15:00;21.40;1.00
4548;DHT22;2286;51.570;7.090;2023-07-09T05:17:27;21.40;1.00
4548;DHT22;2286;51.570;7.090;2023-07-09T05:19:54;21.60;1.00
4548;DHT22;2286;51.570;7.090;2023-07-09T05:22:23;21.60;1.00
4548;DHT22;2286;51.570;7.090;2023-07-09T05:24:49;21.70;99.90
4548;DHT22;2286;51.570;7.090;2023-07-09T05:27:17;21.80;99.90
4548;DHT22;2286;51.570;7.090;2023-07-09T05:29:44;21.90;99.90
4548;DHT22;2286;51.570;7.090;2023-07-09T05:32:11;22.00;99.90
4548;DHT22;2286;51.570;7.090;2023-07-09T05:34:38;22.10;99.90
4548;DHT22;2286;51.570;7.090;2023-07-09T05:37:05;22.10;99.90
4548;DHT22;2286;51.570;7.090;2023-07-09T05:39:34;22.10;99.90
4548;DHT22;2286;51.570;7.090;2023-07-09T05:42:01;22.20;99.90
4548;DHT22;2286;51.570;7.090;2023-07-09T05:44:28;22.20;99.90
4548;DHT22;2286;51.570;7.090;2023-07-09T05:46:55;22.30;99.90
4548;DHT22;2286;51.570;7.090;2023-07-09T05:49:22;22.50;99.90
4548;DHT22;2286;51.570;7.090;2023-07-09T05:51:49;22.50;99.90
4548;DHT22;2286;51.570;7.090;2023-07-09T05:54:16;22.60;99.90
4548;DHT22;2286;51.570;7.090;2023-07-09T05:56:45;22.70;99.90
4548;DHT22;2286;51.570;7.090;2023-07-09T05:59:12;22.90;99.90
4548;DHT22;2286;51.570;7.090;2023-07-09T06:01:39;23.00;99.90
4548;DHT22;2286;51.570;7.090;2023-07-09T06:04:06;23.10;97.50
4548;DHT22;2286;51.570;7.090;2023-07-09T06:06:33;23.20;99.90
4548;DHT22;2286;51.570;7.090;2023-07-09T06:09:00;23.30;99.90
4548;DHT22;2286;51.570;7.090;2023-07-09T06:11:28;23.40;31.70
4548;DHT22;2286;51.570;7.090;2023-07-09T06:13:57;23.50;17.10
4548;DHT22;2286;51.570;7.090;2023-07-09T06:16:24;23.60;1.00
4548;DHT22;2286;51.570;7.090;2023-07-09T06:18:51;23.70;1.00
4548;DHT22;2286;51.570;7.090;2023-07-09T06:21:18;23.80;1.00
4548;DHT22;2286;51.570;7.090;2023-07-09T06:23:46;23.90;1.00
4548;DHT22;2286;51.570;7.090;2023-07-09T06:26:13;24.00;1.00
4548;DHT22;2286;51.570;7.090;2023-07-09T06:28:40;24.10;1.00
4548;DHT22;2286;51.570;7.090;2023-07-09T06:31:08;24.20;1.00
4548;DHT22;2286;51.570;7.090;2023-07-09T06:33:35;24.20;1.00
4548;DHT22;2286;51.570;7.090;2023-07-09T06:36:03;24.40;1.00
4548;DHT22;2286;51.570;7.090;2023-07-09T06:38:30;24.50;1.00
4548;DHT22;2286;51.570;7.090;2023-07-09T06:40:57;24.60;1.00
4548;DHT22;2286;51.570;7.090;2023-07-09T06:43:24;24.70;99.90
4548;DHT22;2286;51.570;7.090;2023-07-09T06:45:53;24.80;99.90
4548;DHT22;2286;51.570;7.090;2023-07-09T06:48:22;24.90;99.90
4548;DHT22;2286;51.570;7.090;2023-07-09T06:50:50;25.00;99.90
4548;DHT22;2286;51.570;7.090;2023-07-09T06:53:17;25.10;99.90
4548;DHT22;2286;51.570;7.090;2023-07-09T06:55:44;25.20;99.90
4548;DHT22;2286;51.570;7.090;2023-07-09T06:58:11;25.30;99.90
4548;DHT22;2286;51.570;7.090;2023-07-09T07:00:38;25.40;99.90
4548;DHT22;2286;51.570;7.090;2023-07-09T07:03:06;25.50;99.90
4548;DHT22;2286;51.570;7.090;2023-07-09T07:05:34;25.60;99.90
4548;DHT22;2286;51.570;7.090;2023-07-09T07:08:02;25.60;99.90
4548;DHT22;2286;51.570;7.090;2023-07-09T07:10:29;25.70;99.90
4548;DHT22;2286;51.570;7.090;2023-07-09T07:12:57;25.90;99.90
4548;DHT22;2286;51.570;7.090;2023-07-09T07:15:24;26.00;99.90
4548;DHT22;2286;51.570;7.090;2023-07-09T07:17:51;26.10;99.90
4548;DHT22;2286;51.570;7.090;2023-07-09T07:20:18;26.20;99.90
4548;DHT22;2286;51.570;7.090;2023-07-09T07:22:47;26.30;99.90
4548;DHT22;2286;51.570;7.090;2023-07-09T07:25:14;26.40;99.90
4548;DHT22;2286;51.570;7.090;2023-07-09T07:27:41;26.50;99.90
4548;DHT22;2286;51.570;7.090;2023-07-09T07:30:09;26.60;99.90
4548;DHT22;2286;51.570;7.090;2023-07-09T07:32:37;26.70;99.90
4548;DHT22;2286;51.570;7.090;2023-07-09T07:35:05;26.80;99.90
4548;DHT22;2286;51.570;7.090;2023-07-09T07:37:32;26.80;99.90
4548;DHT22;2286;51.570;7.090;2023-07-09T07:40:01;26.90;99.90
4548;DHT22;2286;51.570;7.090;2023-07-09T07:42:30;27.00;99.90
4548;DHT22;2286;51.570;7.090;2023-07-09T07:44:57;27.10;99.90
4548;DHT22;2286;51.570;7.090;2023-07-09T07:47:24;27.30;99.90
4548;DHT22;2286;51.570;7.090;2023-07-09T07:49:53;27.50;99.90
4548;DHT22;2286;51.570;7.090;2023-07-09T07:52:20;27.50;99.90
4548;DHT22;2286;51.570;7.090;2023-07-09T07:54:47;27.70;99.90
4548;DHT22;2286;51.570;7.090;2023-07-09T07:57:16;27.80;99.90
4548;DHT22;2286;51.570;7.090;2023-07-09T07:59:43;27.90;99.90
4548;DHT22;2286;51.570;7.090;2023-07-09T08:02:12;28.00;99.90
4548;DHT22;2286;51.570;7.090;2023-07-09T08:04:40;28.10;99.90
4548;DHT22;2286;51.570;7.090;2023-07-09T08:07:07;28.30;99.90
4548;DHT22;2286;51.570;7.090;2023-07-09T08:09:35;28.40;99.90
4548;DHT22;2286;51.570;7.090;2023-07-09T08:12:02;28.50;99.90
4548;DHT22;2286;51.570;7.090;2023-07-09T08:14:36;28.70;99.90
4548;DHT22;2286;51.570;7.090;2023-07-09T08:17:04;28.80;99.90
4548;DHT22;2286;51.570;7.090;2023-07-09T08:19:32;28.80;99.90
4548;DHT22;2286;51.570;7.090;2023-07-09T08:21:59;28.90;99.90
4548;DHT22;2286;51.570;7.090;2023-07-09T08:24:26;29.00;99.90
4548;DHT22;2286;51.570;7.090;2023-07-09T08:26:53;29.10;99.90
4548;DHT22;2286;51.570;7.090;2023-07-09T08:29:22;29.30;99.90
4548;DHT22;2286;51.570;7.090;2023-07-09T08:31:50;29.40;99.90
4548;DHT22;2286;51.570;7.090;2023-07-09T08:34:18;29.50;99.90
4548;DHT22;2286;51.570;7.090;2023-07-09T08:36:45;29.70;97.30
4548;DHT22;2286;51.570;7.090;2023-07-09T08:39:12;29.80;99.30
4548;DHT22;2286;51.570;7.090;2023-07-09T08:41:44;29.90;96.60
4548;DHT22;2286;51.570;7.090;2023-07-09T08:44:27;30.00;98.00
4548;DHT22;2286;51.570;7.090;2023-07-09T08:47:05;30.10;98.60
4548;DHT22;2286;51.570;7.090;2023-07-09T08:49:40;30.10;97.70
4548;DHT22;2286;51.570;7.090;2023-07-09T08:52:13;30.20;98.70
4548;DHT22;2286;51.570;7.090;2023-07-09T08:54:43;30.40;99.60
4548;DHT22;2286;51.570;7.090;2023-07-09T08:57:19;30.40;92.10
4548;DHT22;2286;51.570;7.090;2023-07-09T08:59:48;30.40;91.50
4548;DHT22;2286;51.570;7.090;2023-07-09T09:02:27;30.50;91.90
4548;DHT22;2286;51.570;7.090;2023-07-09T09:04:56;30.60;91.50
4548;DHT22;2286;51.570;7.090;2023-07-09T09:07:32;30.70;92.50
4548;DHT22;2286;51.570;7.090;2023-07-09T09:10:03;30.90;94.10
4548;DHT22;2286;51.570;7.090;2023-07-09T09:12:35;31.00;91.20
4548;DHT22;2286;51.570;7.090;2023-07-09T09:15:10;31.10;92.80
4548;DHT22;2286;51.570;7.090;2023-07-09T09:17:42;31.30;85.80
4548;DHT22;2286;51.570;7.090;2023-07-09T09:20:13;31.50;85.60
4548;DHT22;2286;51.570;7.090;2023-07-09T09:22:47;31.70;85.70
4548;DHT22;2286;51.570;7.090;2023-07-09T09:25:21;32.00;83.00
4548;DHT22;2286;51.570;7.090;2023-07-09T09:27:49;32.10;83.80
4548;DHT22;2286;51.570;7.090;2023-07-09T09:30:18;32.30;83.10
4548;DHT22;2286;51.570;7.090;2023-07-09T09:32:50;32.50;95.20
4548;DHT22;2286;51.570;7.090;2023-07-09T09:35:24;32.50;76.80
4548;DHT22;2286;51.570;7.090;2023-07-09T09:37:53;32.60;74.00
4548;DHT22;2286;51.570;7.090;2023-07-09T09:40:22;32.80;72.20
4548;DHT22;2286;51.570;7.090;2023-07-09T09:42:50;33.00;71.80
4548;DHT22;2286;51.570;7.090;2023-07-09T09:45:18;33.30;74.40
4548;DHT22;2286;51.570;7.090;2023-07-09T09:47:48;33.50;78.80
4548;DHT22;2286;51.570;7.090;2023-07-09T09:50:15;33.70;72.30
4548;DHT22;2286;51.570;7.090;2023-07-09T09:52:43;33.90;70.80
4548;DHT22;2286;51.570;7.090;2023-07-09T09:55:16;34.10;71.40
4548;DHT22;2286;51.570;7.090;2023-07-09T09:57:48;34.20;70.60
4548;DHT22;2286;51.570;7.090;2023-07-09T10:00:16;34.30;66.90
4548;DHT22;2286;51.570;7.090;2023-07-09T10:02:46;34.20;64.40
4548;DHT22;2286;51.570;7.090;2023-07-09T10:05:14;34.30;63.40
4548;DHT22;2286;51.570;7.090;2023-07-09T10:07:47;34.40;62.80
4548;DHT22;2286;51.570;7.090;2023-07-09T10:10:19;34.60;85.90
4548;DHT22;2286;51.570;7.090;2023-07-09T10:12:51;34.80;63.20
4548;DHT22;2286;51.570;7.090;2023-07-09T10:15:29;35.10;63.50
4548;DHT22;2286;51.570;7.090;2023-07-09T10:18:02;35.60;64.30
4548;DHT22;2286;51.570;7.090;2023-07-09T10:20:35;35.90;62.50
4548;DHT22;2286;51.570;7.090;2023-07-09T10:23:12;35.90;60.90
4548;DHT22;2286;51.570;7.090;2023-07-09T10:25:48;35.60;57.20
4548;DHT22;2286;51.570;7.090;2023-07-09T10:31:25;36.40;61.90
4548;DHT22;2286;51.570;7.090;2023-07-09T10:34:04;37.10;61.40
4548;DHT22;2286;51.570;7.090;2023-07-09T10:36:44;37.50;62.50
4548;DHT22;2286;51.570;7.090;2023-07-09T10:39:18;37.80;62.10
4548;DHT22;2286;51.570;7.090;2023-07-09T10:41:47;38.20;62.60
4548;DHT22;2286;51.570;7.090;2023-07-09T10:44:18;38.50;61.40
4548;DHT22;2286;51.570;7.090;2023-07-09T10:46:50;39.00;62.20
4548;DHT22;2286;51.570;7.090;2023-07-09T10:49:21;39.70;65.90
4548;DHT22;2286;51.570;7.090;2023-07-09T10:51:51;39.90;62.90
4548;DHT22;2286;51.570;7.090;2023-07-09T10:54:28;40.60;66.50
4548;DHT22;2286;51.570;7.090;2023-07-09T10:57:00;41.50;69.20
4548;DHT22;2286;51.570;7.090;2023-07-09T10:59:31;41.60;65.10
4548;DHT22;2286;51.570;7.090;2023-07-09T11:02:05;41.30;86.40
4548;DHT22;2286;51.570;7.090;2023-07-09T11:04:43;41.20;62.00
4548;DHT22;2286;51.570;7.090;2023-07-09T11:07:14;40.90;58.50
4548;DHT22;2286;51.570;7.090;2023-07-09T11:09:43;40.80;57.10
4548;DHT22;2286;51.570;7.090;2023-07-09T11:12:14;41.70;60.90
4548;DHT22;2286;51.570;7.090;2023-07-09T11:14:46;42.60;64.20
4548;DHT22;2286;51.570;7.090;2023-07-09T11:17:17;43.60;67.10
4548;DHT22;2286;51.570;7.090;2023-07-09T11:19:48;44.40;70.70
4548;DHT22;2286;51.570;7.090;2023-07-09T11:22:17;45.10;73.40
4548;DHT22;2286;51.570;7.090;2023-07-09T11:24:49;45.80;75.40
4548;DHT22;2286;51.570;7.090;2023-07-09T11:27:19;46.20;77.70
4548;DHT22;2286;51.570;7.090;2023-07-09T11:29:48;45.90;72.80
4548;DHT22;2286;51.570;7.090;2023-07-09T11:32:20;45.60;69.20
4548;DHT22;2286;51.570;7.090;2023-07-09T11:34:49;46.20;70.10
4548;DHT22;2286;51.570;7.090;2023-07-09T11:37:17;46.20;68.00
4548;DHT22;2286;51.570;7.090;2023-07-09T11:39:47;45.90;67.80
4548;DHT22;2286;51.570;7.090;2023-07-09T11:42:25;45.80;62.80
4548;DHT22;2286;51.570;7.090;2023-07-09T11:44:58;45.80;62.80
4548;DHT22;2286;51.570;7.090;2023-07-09T11:47:28;44.80;56.40
4548;DHT22;2286;51.570;7.090;2023-07-09T11:49:59;44.50;54.40
4548;DHT22;2286;51.570;7.090;2023-07-09T11:52:31;44.70;55.90
4548;DHT22;2286;51.570;7.090;2023-07-09T11:55:02;44.90;54.60
4548;DHT22;2286;51.570;7.090;2023-07-09T11:57:29;45.10;55.90
4548;DHT22;2286;51.570;7.090;2023-07-09T11:59:59;45.70;57.20
4548;DHT22;2286;51.570;7.090;2023-07-09T12:02:31;46.50;58.90
4548;DHT22;2286;51.570;7.090;2023-07-09T12:05:02;46.20;56.80
4548;DHT22;2286;51.570;7.090;2023-07-09T12:07:30;47.00;60.60
4548;DHT22;2286;51.570;7.090;2023-07-09T12:09:57;47.80;61.70
4548;DHT22;2286;51.570;7.090;2023-07-09T12:12:26;47.80;60.70
4548;DHT22;2286;51.570;7.090;2023-07-09T12:14:53;48.10;62.60
4548;DHT22;2286;51.570;7.090;2023-07-09T12:17:23;48.50;62.40
4548;DHT22;2286;51.570;7.090;2023-07-09T12:19:51;48.80;62.30
4548;DHT22;2286;51.570;7.090;2023-07-09T12:22:21;48.80;59.50
4548;DHT22;2286;51.570;7.090;2023-07-09T12:24:49;47.50;54.30
4548;DHT22;2286;51.570;7.090;2023-07-09T12:27:20;47.20;54.20
4548;DHT22;2286;51.570;7.090;2023-07-09T12:29:47;47.10;52.60
4548;DHT22;2286;51.570;7.090;2023-07-09T12:32:17;46.40;49.60
4548;DHT22;2286;51.570;7.090;2023-07-09T12:34:51;46.20;48.80
4548;DHT22;2286;51.570;7.090;2023-07-09T12:37:21;45.90;49.00
4548;DHT22;2286;51.570;7.090;2023-07-09T12:39:50;45.40;44.60
4548;DHT22;2286;51.570;7.090;2023-07-09T12:42:20;45.30;45.50
4548;DHT22;2286;51.570;7.090;2023-07-09T12:44:49;44.90;43.60
4548;DHT22;2286;51.570;7.090;2023-07-09T12:47:18;44.90;42.90
4548;DHT22;2286;51.570;7.090;2023-07-09T12:49:46;43.90;37.60
4548;DHT22;2286;51.570;7.090;2023-07-09T12:52:20;43.80;39.90
4548;DHT22;2286;51.570;7.090;2023-07-09T12:54:56;44.70;43.00
4548;DHT22;2286;51.570;7.090;2023-07-09T12:57:24;44.80;41.80
4548;DHT22;2286;51.570;7.090;2023-07-09T12:59:51;44.90;41.70
4548;DHT22;2286;51.570;7.090;2023-07-09T13:02:22;44.90;40.80
4548;DHT22;2286;51.570;7.090;2023-07-09T13:04:57;44.80;41.60
4548;DHT22;2286;51.570;7.090;2023-07-09T13:07:30;44.80;40.70
4548;DHT22;2286;51.570;7.090;2023-07-09T13:10:05;45.20;42.30
4548;DHT22;2286;51.570;7.090;2023-07-09T13:12:33;44.30;38.20
4548;DHT22;2286;51.570;7.090;2023-07-09T13:15:00;43.70;36.30
4548;DHT22;2286;51.570;7.090;2023-07-09T13:17:30;43.10;33.10
4548;DHT22;2286;51.570;7.090;2023-07-09T13:19:58;42.00;29.40
4548;DHT22;2286;51.570;7.090;2023-07-09T13:22:28;42.40;30.80
4548;DHT22;2286;51.570;7.090;2023-07-09T13:24:55;42.60;32.10
4548;DHT22;2286;51.570;7.090;2023-07-09T13:27:22;42.30;30.90
4548;DHT22;2286;51.570;7.090;2023-07-09T13:29:50;41.70;28.10
4548;DHT22;2286;51.570;7.090;2023-07-09T13:32:18;41.00;25.80
4548;DHT22;2286;51.570;7.090;2023-07-09T13:34:45;40.30;24.70
4548;DHT22;2286;51.570;7.090;2023-07-09T13:37:15;40.10;24.10
4548;DHT22;2286;51.570;7.090;2023-07-09T13:39:43;39.70;23.00
4548;DHT22;2286;51.570;7.090;2023-07-09T13:42:13;39.30;22.20
4548;DHT22;2286;51.570;7.090;2023-07-09T13:44:41;39.20;22.90
4548;DHT22;2286;51.570;7.090;2023-07-09T13:47:12;39.30;23.50
4548;DHT22;2286;51.570;7.090;2023-07-09T13:49:42;39.00;22.80
4548;DHT22;2286;51.570;7.090;2023-07-09T13:52:16;38.80;22.10
4548;DHT22;2286;51.570;7.090;2023-07-09T13:54:45;38.30;20.30
4548;DHT22;2286;51.570;7.090;2023-07-09T13:57:15;37.90;19.80
4548;DHT22;2286;51.570;7.090;2023-07-09T13:59:43;37.60;19.10
4548;DHT22;2286;51.570;7.090;2023-07-09T14:02:24;37.00;18.60
4548;DHT22;2286;51.570;7.090;2023-07-09T14:04:56;36.90;17.90
4548;DHT22;2286;51.570;7.090;2023-07-09T14:07:27;36.50;17.30
4548;DHT22;2286;51.570;7.090;2023-07-09T14:09:56;36.40;16.90
4548;DHT22;2286;51.570;7.090;2023-07-09T14:12:24;36.10;16.50
4548;DHT22;2286;51.570;7.090;2023-07-09T14:14:52;35.90;17.00
4548;DHT22;2286;51.570;7.090;2023-07-09T14:17:19;35.70;16.30
4548;DHT22;2286;51.570;7.090;2023-07-09T14:19:48;35.50;16.50
4548;DHT22;2286;51.570;7.090;2023-07-09T14:22:23;35.20;16.00
4548;DHT22;2286;51.570;7.090;2023-07-09T14:24:51;35.00;16.80
4548;DHT22;2286;51.570;7.090;2023-07-09T14:27:20;34.80;16.40
4548;DHT22;2286;51.570;7.090;2023-07-09T14:29:47;34.50;16.40
4548;DHT22;2286;51.570;7.090;2023-07-09T14:32:32;34.10;14.90
4548;DHT22;2286;51.570;7.090;2023-07-09T14:34:59;33.80;15.30
4548;DHT22;2286;51.570;7.090;2023-07-09T14:37:27;33.70;14.70
4548;DHT22;2286;51.570;7.090;2023-07-09T14:39:54;32.80;13.60
4548;DHT22;2286;51.570;7.090;2023-07-09T14:42:22;32.10;12.90
4548;DHT22;2286;51.570;7.090;2023-07-09T14:44:49;31.10;14.00
4548;DHT22;2286;51.570;7.090;2023-07-09T14:47:18;29.60;32.80
4548;DHT22;2286;51.570;7.090;2023-07-09T14:49:45;27.80;99.90
4548;DHT22;2286;51.570;7.090;2023-07-09T14:52:13;26.40;99.90
4548;DHT22;2286;51.570;7.090;2023-07-09T14:54:43;25.30;1.00
4548;DHT22;2286;51.570;7.090;2023-07-09T14:57:18;24.50;1.00
4548;DHT22;2286;51.570;7.090;2023-07-09T14:59:47;24.00;1.00
4548;DHT22;2286;51.570;7.090;2023-07-09T15:02:21;23.50;1.00
4548;DHT22;2286;51.570;7.090;2023-07-09T15:04:50;23.30;54.30
4548;DHT22;2286;51.570;7.090;2023-07-09T15:07:17;22.70;94.70
4548;DHT22;2286;51.570;7.090;2023-07-09T15:09:44;21.50;1.00
4548;DHT22;2286;51.570;7.090;2023-07-09T15:12:17;20.90;99.90
4548;DHT22;2286;51.570;7.090;2023-07-09T15:14:47;20.90;99.90
4548;DHT22;2286;51.570;7.090;2023-07-09T15:17:15;21.10;99.90
4548;DHT22;2286;51.570;7.090;2023-07-09T15:19:42;21.00;99.90
4548;DHT22;2286;51.570;7.090;2023-07-09T15:22:19;21.10;99.90
4548;DHT22;2286;51.570;7.090;2023-07-09T15:24:47;21.20;99.90
4548;DHT22;2286;51.570;7.090;2023-07-09T15:27:14;21.10;99.90
4548;DHT22;2286;51.570;7.090;2023-07-09T15:29:42;21.10;99.90
4548;DHT22;2286;51.570;7.090;2023-07-09T15:32:10;21.20;99.90
4548;DHT22;2286;51.570;7.090;2023-07-09T15:34:37;21.20;99.90
4548;DHT22;2286;51.570;7.090;2023-07-09T15:37:11;21.40;99.90
4548;DHT22;2286;51.570;7.090;2023-07-09T15:39:39;21.60;99.90
4548;DHT22;2286;51.570;7.090;2023-07-09T15:42:10;21.80;99.90
4548;DHT22;2286;51.570;7.090;2023-07-09T15:44:37;21.80;99.90
4548;DHT22;2286;51.570;7.090;2023-07-09T15:47:04;21.80;99.90
4548;DHT22;2286;51.570;7.090;2023-07-09T15:49:35;21.80;99.90
4548;DHT22;2286;51.570;7.090;2023-07-09T15:52:03;21.90;99.90
4548;DHT22;2286;51.570;7.090;2023-07-09T15:54:30;21.90;99.90
4548;DHT22;2286;51.570;7.090;2023-07-09T15:56:58;21.90;99.90
4548;DHT22;2286;51.570;7.090;2023-07-09T15:59:28;21.60;99.90
4548;DHT22;2286;51.570;7.090;2023-07-09T16:01:57;21.70;99.90
4548;DHT22;2286;51.570;7.090;2023-07-09T16:04:25;21.50;99.90
4548;DHT22;2286;51.570;7.090;2023-07-09T16:06:54;21.40;99.90
4548;DHT22;2286;51.570;7.090;2023-07-09T16:09:23;21.30;99.90
4548;DHT22;2286;51.570;7.090;2023-07-09T16:11:52;21.40;99.90
4548;DHT22;2286;51.570;7.090;2023-07-09T16:14:24;21.30;99.90
4548;DHT22;2286;51.570;7.090;2023-07-09T16:16:53;21.20;99.90
4548;DHT22;2286;51.570;7.090;2023-07-09T16:19:22;21.30;99.90